createdAt,value
2018-11-11T00:00:50.317Z,30.10
2018-11-11T00:03:25.998Z,30.80
2018-11-11T00:06:02.027Z,29.37
2018-11-11T00:08:39.418Z,28.30
2018-11-11T00:11:15.303Z,29.10
2018-11-11T00:13:50.939Z,28.93
2018-11-11T00:16:27.284Z,27.77
2018-11-11T00:19:02.979Z,29.17
2018-11-11T00:21:39.031Z,29.52
2018-11-11T00:24:15.268Z,28.33
2018-11-11T00:26:51.082Z,28.87
2018-11-11T00:29:26.785Z,28.67
2018-11-11T00:32:02.658Z,28.40
2018-11-11T00:34:38.661Z,28.95
2018-11-11T00:37:15.092Z,27.77
2018-11-11T00:39:51.277Z,28.57
2018-11-11T00:42:27.279Z,28.10
2018-11-11T00:45:03.266Z,29.00
2018-11-11T00:47:38.975Z,28.27
2018-11-11T00:50:15.714Z,28.70
2018-11-11T00:52:51.419Z,28.50
2018-11-11T00:55:27.433Z,28.60
2018-11-11T00:58:02.845Z,28.87
2018-11-11T01:00:39.604Z,27.50
2018-11-11T01:03:15.090Z,27.05
2018-11-11T01:05:50.862Z,27.60
2018-11-11T01:08:26.657Z,26.00
2018-11-11T01:11:02.659Z,24.85
2018-11-11T01:13:38.634Z,23.35
2018-11-11T01:16:14.480Z,25.75
2018-11-11T01:18:49.994Z,23.90
2018-11-11T01:21:26.097Z,22.67
2018-11-11T01:24:02.057Z,21.87
2018-11-11T01:26:38.438Z,21.87
2018-11-11T01:29:14.091Z,23.45
2018-11-11T01:31:50.218Z,20.23
2018-11-11T01:34:26.043Z,23.20
2018-11-11T01:37:02.095Z,22.00
2018-11-11T01:39:37.828Z,20.20
2018-11-11T01:43:39.879Z,17.90
2018-11-11T01:46:16.085Z,21.43
2018-11-11T01:48:51.710Z,19.25
2018-11-11T01:51:27.860Z,18.60
2018-11-11T01:54:03.477Z,18.85
2018-11-11T01:56:39.099Z,19.33
2018-11-11T01:59:14.857Z,20.88
2018-11-11T02:01:50.291Z,18.45
2018-11-11T02:04:26.429Z,17.77
2018-11-11T02:07:02.314Z,16.73
2018-11-11T02:09:38.462Z,19.60
2018-11-11T02:12:14.085Z,19.55
2018-11-11T02:14:50.222Z,23.10
2018-11-11T02:17:26.223Z,23.90
2018-11-11T02:20:03.280Z,23.90
2018-11-11T02:22:39.010Z,23.65
2018-11-11T02:25:14.856Z,23.38
2018-11-11T02:27:50.916Z,22.98
2018-11-11T02:30:26.910Z,26.15
2018-11-11T02:33:03.567Z,25.97
2018-11-11T02:35:39.927Z,22.83
2018-11-11T02:38:16.283Z,24.23
2018-11-11T02:40:51.927Z,24.87
2018-11-11T02:43:28.267Z,22.30
2018-11-11T02:46:58.883Z,23.20
2018-11-11T02:49:34.855Z,22.27
2018-11-11T02:52:11.105Z,21.40
2018-11-11T02:54:46.877Z,22.15
2018-11-11T02:57:23.073Z,20.60
2018-11-11T02:59:59.102Z,19.90
2018-11-11T03:02:35.269Z,21.50
2018-11-11T03:05:12.385Z,20.93
2018-11-11T03:07:48.370Z,17.80
2018-11-11T03:10:24.458Z,17.90
2018-11-11T03:13:00.826Z,18.15
2018-11-11T03:15:38.089Z,18.80
2018-11-11T03:18:13.989Z,17.07
2018-11-11T03:20:50.054Z,18.23
2018-11-11T03:23:26.070Z,17.53
2018-11-11T03:26:02.002Z,18.60
2018-11-11T03:28:38.062Z,18.73
2018-11-11T03:31:14.008Z,20.00
2018-11-11T03:33:50.001Z,20.23
2018-11-11T03:36:25.737Z,19.67
2018-11-11T03:39:02.086Z,21.50
2018-11-11T03:41:38.000Z,21.33
2018-11-11T03:44:13.939Z,24.13
2018-11-11T03:46:49.998Z,25.30
2018-11-11T03:49:25.648Z,26.23
2018-11-11T03:52:01.454Z,26.17
2018-11-11T03:54:37.485Z,25.27
2018-11-11T03:57:13.976Z,25.90
2018-11-11T03:59:50.089Z,26.13
2018-11-11T04:02:25.634Z,27.77
2018-11-11T04:05:02.060Z,27.80
2018-11-11T04:07:37.847Z,25.85
2018-11-11T04:10:18.538Z,26.03
2018-11-11T04:14:03.088Z,106.10
2018-11-11T04:16:49.043Z,106.12
2018-11-11T04:19:36.770Z,110.50
2018-11-11T04:26:08.328Z,104.20
2018-11-11T04:28:44.925Z,95.03
2018-11-11T04:31:25.352Z,96.72
2018-11-11T04:34:52.245Z,91.70
2018-11-11T04:37:35.348Z,86.27
2018-11-11T04:54:14.692Z,89.22
2018-11-11T04:56:55.260Z,79.80
2018-11-11T05:15:30.331Z,13.22
2018-11-11T05:18:06.273Z,13.58
2018-11-11T05:20:42.002Z,13.93
2018-11-11T05:26:01.267Z,14.07
2018-11-11T05:28:37.855Z,13.45
2018-11-11T05:31:14.320Z,14.58
2018-11-11T05:33:50.482Z,13.80
2018-11-11T05:36:26.794Z,15.25
2018-11-11T05:39:03.066Z,14.80
2018-11-11T05:41:39.070Z,14.65
2018-11-11T05:44:15.046Z,14.03
2018-11-11T05:46:51.078Z,14.43
2018-11-11T05:49:27.097Z,15.45
2018-11-11T05:52:03.100Z,15.00
2018-11-11T05:54:38.903Z,15.90
2018-11-11T05:57:15.095Z,16.70
2018-11-11T05:59:51.295Z,17.17
2018-11-11T06:02:27.482Z,17.32
2018-11-11T06:05:03.438Z,18.30
2018-11-11T06:07:40.009Z,18.43
2018-11-11T06:10:16.926Z,16.87
2018-11-11T06:12:52.878Z,18.87
2018-11-11T06:15:28.905Z,19.00
2018-11-11T06:18:05.217Z,18.23
2018-11-11T06:20:41.488Z,17.30
2018-11-11T06:25:31.834Z,18.60
2018-11-11T06:28:07.455Z,19.13
2018-11-11T06:30:43.114Z,19.57
2018-11-11T06:33:19.116Z,19.33
2018-11-11T06:35:55.081Z,18.80
2018-11-11T06:38:31.097Z,17.80
2018-11-11T06:41:07.097Z,18.53
2018-11-11T06:43:42.865Z,17.97
2018-11-11T06:46:18.806Z,17.37
2018-11-11T06:48:55.230Z,17.92
2018-11-11T06:51:31.290Z,18.50
2018-11-11T06:54:07.325Z,17.83
2018-11-11T06:56:43.025Z,17.77
2018-11-11T06:59:19.318Z,17.23
2018-11-11T07:04:03.139Z,21.33
2018-11-11T07:06:39.170Z,18.20
2018-11-11T07:09:15.310Z,19.20
2018-11-11T07:11:51.529Z,17.00
2018-11-11T07:14:27.957Z,18.82
2018-11-11T07:17:04.317Z,19.77
2018-11-11T07:19:40.447Z,21.65
2018-11-11T07:22:16.469Z,21.13
2018-11-11T07:24:52.629Z,20.32
2018-11-11T07:27:28.314Z,19.33
2018-11-11T07:30:05.061Z,19.93
2018-11-11T07:32:41.057Z,19.62
2018-11-11T07:35:17.211Z,22.40
2018-11-11T07:37:53.465Z,20.70
2018-11-11T07:40:29.802Z,31.00
2018-11-11T07:43:06.086Z,33.30
2018-11-11T07:45:42.261Z,24.67
2018-11-11T07:48:18.360Z,32.20
2018-11-11T07:50:54.870Z,36.88
2018-11-11T07:53:31.049Z,36.50
2018-11-11T07:56:07.001Z,33.53
2018-11-11T07:58:43.238Z,36.93
2018-11-11T08:01:19.994Z,38.30
2018-11-11T08:03:55.995Z,36.33
2018-11-11T08:06:32.091Z,37.40
2018-11-11T08:09:09.085Z,37.55
2018-11-11T08:12:01.476Z,39.98
2018-11-11T08:14:37.307Z,36.40
2018-11-11T08:17:13.473Z,32.93
2018-11-11T08:19:50.050Z,23.00
2018-11-11T08:22:26.087Z,28.30
2018-11-11T08:25:02.205Z,31.20
2018-11-11T08:27:37.989Z,28.03
2018-11-11T08:30:14.837Z,38.87
2018-11-11T08:32:51.518Z,35.23
2018-11-11T08:35:27.754Z,37.63
2018-11-11T08:38:03.827Z,39.70
2018-11-11T08:40:39.899Z,40.70
2018-11-11T08:43:16.263Z,40.30
2018-11-11T08:45:52.253Z,39.25
2018-11-11T08:48:28.271Z,40.63
2018-11-11T08:51:04.318Z,40.35
2018-11-11T08:53:40.263Z,36.23
2018-11-11T08:56:16.435Z,29.82
2018-11-11T09:02:40.432Z,33.67
2018-11-11T09:05:16.961Z,31.97
2018-11-11T09:07:53.260Z,35.15
2018-11-11T09:10:29.702Z,31.60
2018-11-11T09:13:05.961Z,35.97
2018-11-11T09:15:42.079Z,37.67
2018-11-11T09:18:18.073Z,30.40
2018-11-11T09:20:53.992Z,38.10
2018-11-11T09:23:30.068Z,33.38
2018-11-11T09:26:06.087Z,40.80
2018-11-11T09:28:42.372Z,40.12
2018-11-11T09:31:18.793Z,39.35
2018-11-11T09:33:55.282Z,41.13
2018-11-11T09:36:31.505Z,39.05
2018-11-11T09:39:10.521Z,39.98
2018-11-11T09:41:46.886Z,40.23
2018-11-11T09:44:23.085Z,40.48
2018-11-11T09:46:59.305Z,40.00
2018-11-11T09:49:35.111Z,42.10
2018-11-11T09:52:11.078Z,41.08
2018-11-11T09:54:47.285Z,41.42
2018-11-11T09:57:23.635Z,39.83
2018-11-11T09:59:59.853Z,38.40
2018-11-11T10:02:36.382Z,36.83
2018-11-11T10:05:47.415Z,36.88
2018-11-11T10:08:28.926Z,38.47
2018-11-11T10:11:09.481Z,40.70
2018-11-11T10:14:05.095Z,37.60
2018-11-11T10:16:46.211Z,39.73
2018-11-11T10:19:31.441Z,40.05
2018-11-11T10:22:15.053Z,40.43
2018-11-11T10:25:57.223Z,42.27
2018-11-11T10:28:40.101Z,40.80
2018-11-11T10:31:20.440Z,42.40
2018-11-11T10:34:00.363Z,42.63
2018-11-11T10:36:40.256Z,39.90
2018-11-11T10:39:21.308Z,39.43
2018-11-11T10:43:05.712Z,40.10
2018-11-11T10:45:45.549Z,40.17
2018-11-11T10:48:28.983Z,40.33
2018-11-11T10:51:06.442Z,40.03
2018-11-11T10:53:42.849Z,41.30
2018-11-11T10:56:19.033Z,42.50
2018-11-11T10:58:54.917Z,39.43
2018-11-11T11:02:40.553Z,41.35
2018-11-11T11:05:16.296Z,40.50
2018-11-11T11:07:52.431Z,43.83
2018-11-11T11:10:28.486Z,45.45
2018-11-11T11:13:04.490Z,44.67
2018-11-11T11:15:40.861Z,45.03
2018-11-11T11:18:16.977Z,44.58
2018-11-11T11:20:53.083Z,44.73
2018-11-11T11:23:29.451Z,45.33
2018-11-11T11:26:05.503Z,45.35
2018-11-11T11:28:41.761Z,44.30
2018-11-11T11:31:17.765Z,45.15
2018-11-11T11:33:54.066Z,45.40
2018-11-11T11:36:30.088Z,46.50
2018-11-11T11:39:06.961Z,45.60
2018-11-11T11:41:42.969Z,45.07
2018-11-11T11:44:19.017Z,45.00
2018-11-11T11:46:55.054Z,45.17
2018-11-11T11:49:31.066Z,44.80
2018-11-11T11:52:07.315Z,43.23
2018-11-11T11:54:43.271Z,44.55
2018-11-11T11:57:19.260Z,47.63
2018-11-11T12:02:36.261Z,45.70
2018-11-11T12:05:13.210Z,46.88
2018-11-11T12:07:49.077Z,48.90
2018-11-11T12:10:25.049Z,49.33
2018-11-11T12:13:01.538Z,49.73
2018-11-11T12:15:37.265Z,47.80
2018-11-11T12:18:13.252Z,48.17
2018-11-11T12:20:49.105Z,47.58
2018-11-11T12:23:25.090Z,51.07
2018-11-11T12:26:02.080Z,47.27
2018-11-11T12:28:38.904Z,46.37
2018-11-11T12:31:14.912Z,47.05
2018-11-11T12:33:51.006Z,48.47
2018-11-11T12:36:27.260Z,48.63
2018-11-11T12:39:03.129Z,46.80
2018-11-11T12:41:39.462Z,48.02
2018-11-11T12:44:15.705Z,48.38
2018-11-11T12:46:51.895Z,49.85
2018-11-11T12:49:28.270Z,48.75
2018-11-11T12:52:04.253Z,49.08
2018-11-11T12:54:40.313Z,49.23
2018-11-11T12:57:16.260Z,49.13
2018-11-11T12:59:52.278Z,50.63
2018-11-11T13:02:28.260Z,49.87
2018-11-11T13:05:04.450Z,49.77
2018-11-11T13:07:40.313Z,47.07
2018-11-11T13:10:17.069Z,50.00
2018-11-11T13:12:53.777Z,49.93
2018-11-11T13:15:29.751Z,47.30
2018-11-11T13:18:05.993Z,49.27
2018-11-11T13:20:42.077Z,47.88
2018-11-11T13:23:18.414Z,49.30
2018-11-11T13:25:54.272Z,52.00
2018-11-11T13:28:30.553Z,47.90
2018-11-11T13:31:06.793Z,47.85
2018-11-11T13:33:42.790Z,46.68
2018-11-11T13:36:19.001Z,47.43
2018-11-11T13:38:55.038Z,49.43
2018-11-11T13:41:30.737Z,48.08
2018-11-11T13:44:06.557Z,47.33
2018-11-11T13:46:42.978Z,48.08
2018-11-11T13:49:19.046Z,47.70
2018-11-11T13:51:55.118Z,49.42
2018-11-11T13:54:31.469Z,47.73
2018-11-11T13:57:07.806Z,49.23
2018-11-11T13:59:44.086Z,48.80
2018-11-11T14:02:20.409Z,48.15
2018-11-11T14:04:57.083Z,47.70
2018-11-11T14:07:33.081Z,47.50
2018-11-11T14:10:10.065Z,48.43
2018-11-11T14:12:46.257Z,45.70
2018-11-11T14:15:25.824Z,45.37
2018-11-11T14:18:02.176Z,43.73
2018-11-11T14:20:38.762Z,45.47
2018-11-11T14:23:15.294Z,44.77
2018-11-11T14:25:51.525Z,44.60
2018-11-11T14:28:28.257Z,45.58
2018-11-11T14:31:04.258Z,44.17
2018-11-11T14:33:40.258Z,43.87
2018-11-11T14:36:16.254Z,43.77
2018-11-11T14:38:52.262Z,45.40
2018-11-11T14:43:18.839Z,44.53
2018-11-11T14:45:54.956Z,45.50
2018-11-11T14:48:31.042Z,44.73
2018-11-11T14:51:07.010Z,44.63
2018-11-11T14:53:43.042Z,42.90
2018-11-11T14:56:18.912Z,42.93
2018-11-11T14:58:55.140Z,44.40
2018-11-11T15:01:31.270Z,43.83
2018-11-11T15:04:07.536Z,43.05
2018-11-11T15:06:43.913Z,41.63
2018-11-11T15:09:20.008Z,42.97
2018-11-11T15:11:56.058Z,40.90
2018-11-11T15:14:32.362Z,42.73
2018-11-11T15:17:08.254Z,41.97
2018-11-11T15:19:44.351Z,41.23
2018-11-11T15:22:20.898Z,38.25
2018-11-11T15:24:56.919Z,39.17
2018-11-11T15:27:32.922Z,37.83
2018-11-11T15:30:09.451Z,38.30
2018-11-11T15:32:46.497Z,38.38
2018-11-11T15:35:22.865Z,39.65
2018-11-11T15:37:59.108Z,40.40
2018-11-11T15:40:36.364Z,38.08
2018-11-11T15:43:12.923Z,38.40
2018-11-11T15:45:49.038Z,37.55
2018-11-11T15:48:25.088Z,37.50
2018-11-11T15:51:01.468Z,36.65
2018-11-11T15:53:37.981Z,37.67
2018-11-11T15:56:14.082Z,37.00
2018-11-11T15:58:50.086Z,37.40
2018-11-11T16:01:26.085Z,35.73
2018-11-11T16:04:02.092Z,36.97
2018-11-11T16:06:38.090Z,33.73
2018-11-11T16:09:14.926Z,34.77
2018-11-11T16:11:50.988Z,33.58
2018-11-11T16:14:26.947Z,31.52
2018-11-11T16:17:03.205Z,32.90
2018-11-11T16:19:39.475Z,32.53
2018-11-11T16:22:15.793Z,31.20
2018-11-11T16:24:52.259Z,31.10
2018-11-11T16:27:28.258Z,31.35
2018-11-11T16:30:05.048Z,29.70
2018-11-11T16:32:41.851Z,30.35
2018-11-11T16:35:19.207Z,28.55
2018-11-11T16:37:55.065Z,28.63
2018-11-11T16:40:33.096Z,29.03
2018-11-11T16:43:09.257Z,28.77
2018-11-11T16:45:45.271Z,25.00
2018-11-11T16:48:21.417Z,24.60
2018-11-11T16:50:57.309Z,25.60
2018-11-11T16:53:33.300Z,23.20
2018-11-11T16:56:09.753Z,22.70
2018-11-11T16:58:45.880Z,22.87
2018-11-11T17:01:21.833Z,23.37
2018-11-11T17:03:58.252Z,22.50
2018-11-11T17:06:35.023Z,21.10
2018-11-11T17:09:15.422Z,19.27
2018-11-11T17:11:52.077Z,20.00
2018-11-11T17:14:28.257Z,18.10
2018-11-11T17:17:04.307Z,15.27
2018-11-11T17:19:40.395Z,15.00
2018-11-11T17:22:16.579Z,13.18
2018-11-11T17:24:52.980Z,13.17
2018-11-11T17:27:29.205Z,12.45
2018-11-11T17:30:06.161Z,12.90
2018-11-11T17:33:42.404Z,5.90
2018-11-11T17:36:18.812Z,3.97
2018-11-11T17:38:54.615Z,3.95
2018-11-11T17:41:30.596Z,5.47
2018-11-11T17:44:06.670Z,5.50
2018-11-11T17:46:42.454Z,4.47
2018-11-11T17:49:18.721Z,4.35
2018-11-11T17:51:54.589Z,4.42
2018-11-11T17:54:30.074Z,4.07
2018-11-11T17:57:05.646Z,3.80
2018-11-11T17:59:41.766Z,5.17
2018-11-11T18:02:17.862Z,3.80
2018-11-11T18:04:55.626Z,4.12
2018-11-11T18:07:31.609Z,4.30
2018-11-11T18:10:07.332Z,4.40
2018-11-11T18:12:44.009Z,4.90
2018-11-11T18:15:21.277Z,4.83
2018-11-11T18:17:56.986Z,4.72
2018-11-11T18:20:34.086Z,4.77
2018-11-11T18:23:10.116Z,5.17
2018-11-11T18:25:46.613Z,5.73
2018-11-11T18:28:22.348Z,5.17
2018-11-11T18:30:58.179Z,5.00
2018-11-11T18:33:34.293Z,5.40
2018-11-11T18:36:10.624Z,5.05
2018-11-11T18:38:46.263Z,5.67
2018-11-11T18:41:22.610Z,5.28
2018-11-11T18:43:58.598Z,4.80
2018-11-11T18:46:34.197Z,4.70
2018-11-11T18:49:10.281Z,5.20
2018-11-11T18:51:45.906Z,5.15
2018-11-11T18:54:22.282Z,5.00
2018-11-11T18:56:57.955Z,5.10
2018-11-11T18:59:33.811Z,5.30
2018-11-11T19:02:09.757Z,4.53
2018-11-11T19:04:46.292Z,4.35
2018-11-11T19:07:22.262Z,4.70
2018-11-11T19:12:50.304Z,4.30
2018-11-11T19:15:26.267Z,4.35
2018-11-11T19:18:02.072Z,4.20
2018-11-11T19:20:38.002Z,4.45
2018-11-11T19:23:13.925Z,4.05
2018-11-11T19:25:49.845Z,4.13
2018-11-11T19:28:25.624Z,3.90
2018-11-11T19:31:02.061Z,4.45
2018-11-11T19:33:37.908Z,4.05
2018-11-11T19:43:08.488Z,3.90
2018-11-11T19:45:44.050Z,3.60
2018-11-11T19:48:19.905Z,3.60
2018-11-11T19:50:55.653Z,3.60
2018-11-11T19:54:00.304Z,3.58
2018-11-11T19:56:35.800Z,3.43
2018-11-11T19:59:12.099Z,3.50
2018-11-11T20:01:47.818Z,3.45
2018-11-11T20:04:23.509Z,3.23
2018-11-11T20:06:59.293Z,3.60
2018-11-11T20:09:34.947Z,3.40
2018-11-11T20:12:11.096Z,3.20
2018-11-11T20:14:47.473Z,3.20
2018-11-11T20:17:23.365Z,3.10
2018-11-11T20:19:59.728Z,2.87
2018-11-11T20:22:36.361Z,3.10
2018-11-11T20:25:13.953Z,2.92
2018-11-11T20:28:48.088Z,3.20
2018-11-11T20:31:24.605Z,3.40
2018-11-11T20:34:01.296Z,2.80
2018-11-11T20:36:37.452Z,3.00
2018-11-11T20:40:50.170Z,10.93
2018-11-11T20:43:26.817Z,11.43
2018-11-11T20:46:05.227Z,10.30
2018-11-11T20:48:41.294Z,9.73
2018-11-11T20:51:17.492Z,10.40
2018-11-11T20:53:53.447Z,9.95
2018-11-11T20:56:29.908Z,10.98
2018-11-11T20:59:45.147Z,9.90
2018-11-11T21:02:21.340Z,12.20
2018-11-11T21:04:57.250Z,11.88
2018-11-11T21:07:33.521Z,9.90
2018-11-11T21:10:10.913Z,10.03
2018-11-11T21:53:37.293Z,8.83
2018-11-11T21:58:49.204Z,85.55
2018-11-11T22:01:26.849Z,21.65
2018-11-11T22:04:04.600Z,12.70
2018-11-11T22:06:41.311Z,14.73
2018-11-11T22:09:20.998Z,14.58
2018-11-11T22:12:01.130Z,15.43
2018-11-11T22:14:37.881Z,16.85
2018-11-11T22:17:20.051Z,19.85
2018-11-11T22:22:51.948Z,15.90
2018-11-11T22:25:29.284Z,18.75
2018-11-11T22:28:07.380Z,22.13
2018-11-11T22:30:44.264Z,25.08
2018-11-11T22:33:21.358Z,22.40
2018-11-11T22:35:58.213Z,26.50
2018-11-11T22:41:12.107Z,20.40
2018-11-11T22:43:49.568Z,23.07
2018-11-11T22:46:28.885Z,22.90
2018-11-11T22:49:06.689Z,23.02
2018-11-11T22:51:44.463Z,24.70
2018-11-11T22:54:20.941Z,39.33
2018-11-11T22:56:58.199Z,38.95
2018-11-11T22:59:36.343Z,41.23
2018-11-11T23:02:13.323Z,42.48
2018-11-11T23:04:50.786Z,43.23
2018-11-11T23:07:28.462Z,45.63
2018-11-11T23:10:07.884Z,46.28
2018-11-11T23:12:44.504Z,45.60
2018-11-11T23:15:23.626Z,48.75
2018-11-11T23:17:59.272Z,46.25
2018-11-11T23:23:11.237Z,48.50
2018-11-11T23:25:49.313Z,48.50
2018-11-11T23:28:26.979Z,75.30
2018-11-11T23:31:05.287Z,50.78
2018-11-11T23:33:45.924Z,49.63
2018-11-11T23:36:23.066Z,51.50
2018-11-11T23:38:59.355Z,52.03
2018-11-11T23:41:36.006Z,49.50
2018-11-11T23:44:16.219Z,47.03
2018-11-11T23:46:53.908Z,45.90
2018-11-11T23:49:33.503Z,124.67
2018-11-11T23:52:12.036Z,45.12
2018-11-11T23:54:49.139Z,42.25
2018-11-11T23:57:26.138Z,44.13
